Private Wetterstation Wechselburg
Wetterdaten: Donnerstag, 03.07.2014
Datum Zeit Temp. +2m Bodentemp. Temp.+5cm Temp. Wind Windchill X Diff Temp. Feuchte +2m Feuchte +5cm Sonnenschein Luftdruck Regen Wind Richtung Richtung Sonnenschein UV Taupunkt Windchill Windben
03.07.2014 00:00 11,9 C 25,0 C 12,0 C 11,3 C 10,0 C 0,0 C 80 % 81 % 0 % 1021,6 hPa 0,0 l/m 0,0 km/h (0 Bft) S-SW 202 0 min 0,0 UV-I 8,6 C 10,0 C 0,0 km/h (0 Bft)
03.07.2014 00:05 11,6 C 25,0 C 11,8 C 11,0 C 9,9 C 0,0 C 80 % 82 % 0 % 1021,6 hPa 0,0 l/m 0,0 km/h (0 Bft) W 270 0 min 0,0 UV-I 8,3 C 9,9 C 0,0 km/h (0 Bft)
03.07.2014 00:10 11,6 C 25,0 C 11,8 C 11,0 C 9,9 C 0,0 C 80 % 82 % 0 % 1021,6 hPa 0,0 l/m 0,0 km/h (0 Bft) W 270 0 min 0,0 UV-I 8,3 C 9,9 C 0,0 km/h (0 Bft)
03.07.2014 00:15 11,5 C 25,0 C 11,9 C 11,0 C 9,9 C 0,0 C 81 % 82 % 0 % 1021,6 hPa 0,0 l/m 0,0 km/h (0 Bft) W 270 0 min 0,0 UV-I 8,4 C 9,9 C 0,0 km/h (0 Bft)
03.07.2014 00:20 11,5 C 25,0 C 11,7 C 10,9 C 9,7 C 0,0 C 81 % 82 % 0 % 1021,8 hPa 0,0 l/m 0,0 km/h (0 Bft) W 270 0 min 0,0 UV-I 8,4 C 9,7 C 0,0 km/h (0 Bft)
03.07.2014 00:25 11,2 C 25,0 C 11,6 C 10,7 C 9,6 C 0,0 C 82 % 82 % 0 % 1021,8 hPa 0,0 l/m 0,0 km/h (0 Bft) W 270 0 min 0,0 UV-I 8,2 C 9,6 C 0,0 km/h (0 Bft)
03.07.2014 00:30 11,2 C 25,0 C 11,5 C 10,7 C 9,6 C 0,0 C 82 % 83 % 0 % 1021,8 hPa 0,0 l/m 0,0 km/h (0 Bft) W 270 0 min 0,0 UV-I 8,2 C 9,6 C 0,0 km/h (0 Bft)
03.07.2014 00:35 11,0 C 25,0 C 11,4 C 10,5 C 9,4 C 0,0 C 82 % 83 % 0 % 1021,8 hPa 0,0 l/m 0,0 km/h (0 Bft) W 270 0 min 0,0 UV-I 8,0 C 9,4 C 0,0 km/h (0 Bft)
03.07.2014 00:41 10,8 C 25,0 C 11,3 C 10,3 C 9,2 C 0,0 C 82 % 83 % 0 % 1021,8 hPa 0,0 l/m 0,0 km/h (0 Bft) N 0 0 min 0,0 UV-I 7,9 C 9,2 C 0,0 km/h (0 Bft)
03.07.2014 00:46 10,7 C 0,0 C 11,2 C 10,2 C 9,1 C 0,0 C 83 % 83 % 0 % 1021,8 hPa 0,0 l/m 0,0 km/h (0 Bft) SW 225 0 min 0,0 UV-I 7,9 C 9,1 C 0,0 km/h (0 Bft)
03.07.2014 00:51 10,7 C 0,0 C 11,2 C 10,1 C 9,0 C 0,0 C 83 % 83 % 0 % 1021,8 hPa 0,0 l/m 0,0 km/h (0 Bft) SW 225 0 min 0,0 UV-I 7,9 C 9,0 C 0,0 km/h (0 Bft)
03.07.2014 00:56 10,4 C 0,0 C 11,1 C 10,0 C 9,1 C 0,0 C 83 % 84 % 0 % 1021,9 hPa 0,0 l/m 0,0 km/h (0 Bft) S-SW 202 0 min 0,0 UV-I 7,6 C 9,1 C 0,0 km/h (0 Bft)
03.07.2014 01:01 10,3 C 0,0 C 11,1 C 9,9 C 9,1 C 0,0 C 83 % 84 % 0 % 1021,9 hPa 0,0 l/m 0,0 km/h (0 Bft) S-SW 202 0 min 0,0 UV-I 7,5 C 9,1 C 0,0 km/h (0 Bft)
03.07.2014 01:06 10,2 C 0,0 C 11,1 C 9,8 C 9,1 C 0,0 C 83 % 84 % 0 % 1021,9 hPa 0,0 l/m 0,0 km/h (0 Bft) S-SW 202 0 min 0,0 UV-I 7,4 C 9,1 C 0,0 km/h (0 Bft)
03.07.2014 01:34 9,6 C 25,0 C 10,7 C 9,3 C 8,6 C 0,0 C 84 % 84 % 0 % 1021,9 hPa 0,0 l/m 0,0 km/h (0 Bft) W-SW 247 0 min 0,0 UV-I 7,0 C 8,6 C 0,0 km/h (0 Bft)
03.07.2014 01:40 9,4 C 25,0 C 10,6 C 9,1 C 8,5 C 0,0 C 84 % 84 % 0 % 1022,0 hPa 0,0 l/m 0,0 km/h (0 Bft) W 270 0 min 0,0 UV-I 6,8 C 8,5 C 0,0 km/h (0 Bft)
03.07.2014 01:45 9,4 C 25,0 C 10,6 C 9,1 C 8,5 C 0,0 C 84 % 84 % 0 % 1022,0 hPa 0,0 l/m 0,0 km/h (0 Bft) W 270 0 min 0,0 UV-I 6,8 C 8,5 C 0,0 km/h (0 Bft)
03.07.2014 01:50 9,4 C 24,9 C 10,5 C 9,1 C 8,4 C 0,0 C 84 % 85 % 0 % 1022,0 hPa 0,0 l/m 0,0 km/h (0 Bft) S 180 0 min 0,0 UV-I 6,8 C 8,4 C 0,0 km/h (0 Bft)
03.07.2014 01:55 9,3 C 24,9 C 10,4 C 9,0 C 8,4 C 0,0 C 85 % 85 % 0 % 1022,0 hPa 0,0 l/m 0,0 km/h (0 Bft) S 180 0 min 0,0 UV-I 6,9 C 8,4 C 0,0 km/h (0 Bft)
03.07.2014 02:00 9,2 C 24,9 C 10,4 C 8,9 C 8,4 C 0,0 C 85 % 85 % 0 % 1022,1 hPa 0,0 l/m 0,0 km/h (0 Bft) S 180 0 min 0,0 UV-I 6,8 C 8,4 C 0,0 km/h (0 Bft)
03.07.2014 02:05 9,1 C 24,9 C 10,3 C 8,8 C 8,2 C 0,0 C 84 % 85 % 0 % 1022,1 hPa 0,0 l/m 0,0 km/h (0 Bft) SW 225 0 min 0,0 UV-I 6,5 C 8,2 C 0,0 km/h (0 Bft)
03.07.2014 02:10 9,1 C 24,9 C 10,3 C 8,8 C 8,2 C 0,0 C 84 % 85 % 0 % 1022,1 hPa 0,0 l/m 0,0 km/h (0 Bft) SW 225 0 min 0,0 UV-I 6,5 C 8,2 C 0,0 km/h (0 Bft)
03.07.2014 02:15 8,9 C 24,9 C 10,3 C 8,6 C 8,1 C 0,0 C 85 % 85 % 0 % 1022,1 hPa 0,0 l/m 0,0 km/h (0 Bft) W-SW 247 0 min 0,0 UV-I 6,5 C 8,1 C 0,0 km/h (0 Bft)
03.07.2014 02:20 8,8 C 24,9 C 10,3 C 8,6 C 8,1 C 0,0 C 85 % 85 % 0 % 1022,3 hPa 0,0 l/m 0,0 km/h (0 Bft) SW 225 0 min 0,0 UV-I 6,4 C 8,1 C 0,0 km/h (0 Bft)
03.07.2014 02:25 8,8 C 24,9 C 10,2 C 8,6 C 8,1 C 0,0 C 85 % 85 % 0 % 1022,3 hPa 0,0 l/m 0,0 km/h (0 Bft) S 180 0 min 0,0 UV-I 6,4 C 8,1 C 0,0 km/h (0 Bft)
03.07.2014 02:30 8,7 C 24,9 C 10,1 C 8,5 C 8,0 C 0,0 C 85 % 85 % 0 % 1022,3 hPa 0,0 l/m 0,0 km/h (0 Bft) S 180 0 min 0,0 UV-I 6,3 C 8,0 C 0,0 km/h (0 Bft)
03.07.2014 02:35 8,7 C 24,9 C 10,1 C 8,4 C 7,9 C 0,0 C 85 % 85 % 0 % 1022,3 hPa 0,0 l/m 0,0 km/h (0 Bft) S 180 0 min 0,0 UV-I 6,3 C 7,9 C 0,0 km/h (0 Bft)
03.07.2014 02:40 8,5 C 24,9 C 10,0 C 8,3 C 7,9 C 0,0 C 85 % 85 % 0 % 1022,3 hPa 0,0 l/m 0,0 km/h (0 Bft) SW 225 0 min 0,0 UV-I 6,1 C 7,9 C 0,0 km/h (0 Bft)
03.07.2014 02:45 8,5 C 24,9 C 10,0 C 8,3 C 7,9 C 0,0 C 85 % 85 % 0 % 1022,3 hPa 0,0 l/m 0,0 km/h (0 Bft) W-SW 247 0 min 0,0 UV-I 6,1 C 7,9 C 0,0 km/h (0 Bft)
03.07.2014 02:50 8,4 C 24,9 C 9,9 C 8,2 C 7,9 C 0,0 C 85 % 85 % 0 % 1022,3 hPa 0,0 l/m 0,0 km/h (0 Bft) SW 225 0 min 0,0 UV-I 6,0 C 7,9 C 0,0 km/h (0 Bft)
03.07.2014 02:55 8,3 C 24,9 C 9,9 C 8,2 C 7,9 C 0,0 C 85 % 85 % 0 % 1022,3 hPa 0,0 l/m 0,0 km/h (0 Bft) S 180 0 min 0,0 UV-I 5,9 C 7,9 C 0,0 km/h (0 Bft)
03.07.2014 03:00 8,3 C 24,9 C 9,9 C 8,2 C 7,9 C 0,0 C 86 % 85 % 0 % 1022,3 hPa 0,0 l/m 0,0 km/h (0 Bft) O 90 0 min 0,0 UV-I 6,1 C 7,9 C 0,0 km/h (0 Bft)
03.07.2014 03:05 8,2 C 24,9 C 9,8 C 8,1 C 7,9 C 0,0 C 86 % 86 % 0 % 1022,3 hPa 0,0 l/m 0,0 km/h (0 Bft) O 90 0 min 0,0 UV-I 6,0 C 7,9 C 0,0 km/h (0 Bft)
03.07.2014 03:10 8,2 C 24,9 C 9,8 C 8,1 C 7,9 C 0,0 C 86 % 86 % 0 % 1022,3 hPa 0,0 l/m 0,0 km/h (0 Bft) O 90 0 min 0,0 UV-I 6,0 C 7,9 C 0,0 km/h (0 Bft)
03.07.2014 03:15 8,1 C 24,9 C 9,7 C 8,0 C 7,8 C 0,0 C 86 % 86 % 0 % 1022,3 hPa 0,0 l/m 0,0 km/h (0 Bft) W 270 0 min 0,0 UV-I 5,9 C 7,8 C 0,0 km/h (0 Bft)
03.07.2014 03:20 8,1 C 24,9 C 9,6 C 8,0 C 7,7 C 0,0 C 86 % 86 % 0 % 1022,4 hPa 0,0 l/m 0,0 km/h (0 Bft) S 180 0 min 0,0 UV-I 5,9 C 7,7 C 0,0 km/h (0 Bft)
03.07.2014 03:25 8,0 C 24,9 C 9,7 C 7,9 C 7,7 C 0,0 C 86 % 86 % 0 % 1022,4 hPa 0,0 l/m 0,0 km/h (0 Bft) S 180 0 min 0,0 UV-I 5,8 C 7,7 C 0,0 km/h (0 Bft)
03.07.2014 03:30 7,9 C 24,9 C 9,5 C 7,8 C 7,5 C 0,0 C 86 % 86 % 0 % 1022,4 hPa 0,0 l/m 0,0 km/h (0 Bft) W 270 0 min 0,0 UV-I 5,7 C 7,5 C 0,0 km/h (0 Bft)
03.07.2014 03:35 7,9 C 24,9 C 9,5 C 7,7 C 7,4 C 0,0 C 86 % 86 % 0 % 1022,4 hPa 0,0 l/m 0,0 km/h (0 Bft) S-SW 202 0 min 0,0 UV-I 5,7 C 7,4 C 0,0 km/h (0 Bft)
03.07.2014 03:40 7,9 C 24,9 C 9,3 C 7,7 C 7,4 C 0,0 C 86 % 86 % 0 % 1022,1 hPa 0,0 l/m 0,0 km/h (0 Bft) S 180 0 min 0,0 UV-I 5,7 C 7,4 C 0,0 km/h (0 Bft)
03.07.2014 03:45 7,7 C 24,9 C 9,3 C 7,6 C 7,3 C 0,0 C 86 % 86 % 0 % 1022,1 hPa 0,0 l/m 0,0 km/h (0 Bft) S 180 0 min 0,0 UV-I 5,5 C 7,3 C 0,0 km/h (0 Bft)
03.07.2014 03:50 7,6 C 24,9 C 9,3 C 7,5 C 7,2 C 0,0 C 86 % 86 % 0 % 1022,1 hPa 0,0 l/m 0,0 km/h (0 Bft) SW 225 0 min 0,0 UV-I 5,4 C 7,2 C 0,0 km/h (0 Bft)
03.07.2014 03:55 7,6 C 24,9 C 9,2 C 7,5 C 7,2 C 0,0 C 86 % 86 % 0 % 1022,1 hPa 0,0 l/m 0,0 km/h (0 Bft) SW 225 0 min 0,0 UV-I 5,4 C 7,2 C 0,0 km/h (0 Bft)
03.07.2014 04:00 7,5 C 24,9 C 9,2 C 7,4 C 7,1 C 0,0 C 86 % 86 % 0 % 1022,1 hPa 0,0 l/m 0,0 km/h (0 Bft) S-SW 202 0 min 0,0 UV-I 5,3 C 7,1 C 0,0 km/h (0 Bft)
03.07.2014 04:05 7,5 C 24,9 C 9,1 C 7,4 C 7,1 C 0,0 C 86 % 86 % 0 % 1022,1 hPa 0,0 l/m 0,0 km/h (0 Bft) SW 225 0 min 0,0 UV-I 5,3 C 7,1 C 0,0 km/h (0 Bft)
03.07.2014 04:10 7,5 C 24,9 C 9,1 C 7,4 C 7,1 C 0,0 C 86 % 86 % 0 % 1022,1 hPa 0,0 l/m 0,0 km/h (0 Bft) SW 225 0 min 0,0 UV-I 5,3 C 7,1 C 0,0 km/h (0 Bft)
03.07.2014 04:15 7,3 C 24,9 C 9,1 C 7,2 C 7,0 C 0,0 C 86 % 86 % 0 % 1022,1 hPa 0,0 l/m 0,0 km/h (0 Bft) SW 225 0 min 0,0 UV-I 5,1 C 7,0 C 0,0 km/h (0 Bft)
03.07.2014 04:20 7,2 C 24,9 C 9,1 C 7,1 C 7,0 C 0,0 C 86 % 86 % 0 % 1022,4 hPa 0,0 l/m 0,0 km/h (0 Bft) W-SW 247 0 min 0,0 UV-I 5,0 C 7,0 C 0,0 km/h (0 Bft)
03.07.2014 04:25 7,3 C 24,9 C 9,1 C 7,2 C 7,0 C 0,0 C 86 % 86 % 0 % 1022,4 hPa 0,0 l/m 0,0 km/h (0 Bft) S-SW 202 0 min 0,0 UV-I 5,1 C 7,0 C 0,0 km/h (0 Bft)
03.07.2014 04:30 7,2 C 24,9 C 9,1 C 7,1 C 6,9 C 0,0 C 86 % 86 % 0 % 1022,4 hPa 0,0 l/m 0,0 km/h (0 Bft) W-SW 247 0 min 0,0 UV-I 5,0 C 6,9 C 0,0 km/h (0 Bft)
03.07.2014 04:35 7,1 C 24,9 C 8,9 C 7,1 C 7,0 C 0,0 C 87 % 86 % 0 % 1022,4 hPa 0,0 l/m 0,0 km/h (0 Bft) SW 225 0 min 0,0 UV-I 5,1 C 7,0 C 0,0 km/h (0 Bft)
03.07.2014 04:40 7,1 C 24,9 C 9,1 C 7,2 C 7,2 C 0,1 C 87 % 87 % 0 % 1022,2 hPa 0,0 l/m 0,0 km/h (0 Bft) SW 225 0 min 0,0 UV-I 5,1 C 7,2 C 0,0 km/h (0 Bft)
03.07.2014 04:45 7,1 C 24,9 C 9,0 C 7,3 C 7,3 C 0,2 C 87 % 87 % 0 % 1022,2 hPa 0,0 l/m 0,0 km/h (0 Bft) S-SW 202 0 min 0,0 UV-I 5,1 C 7,3 C 0,0 km/h (0 Bft)
03.07.2014 04:50 7,1 C 24,9 C 9,0 C 7,4 C 7,4 C 0,3 C 87 % 87 % 0 % 1022,2 hPa 0,0 l/m 0,0 km/h (0 Bft) S-SW 202 0 min 0,0 UV-I 5,1 C 7,4 C 0,0 km/h (0 Bft)
03.07.2014 04:55 7,1 C 24,9 C 9,0 C 7,4 C 7,4 C 0,3 C 87 % 87 % 0 % 1022,2 hPa 0,0 l/m 0,0 km/h (0 Bft) S-SW 202 0 min 0,0 UV-I 5,1 C 7,4 C 0,0 km/h (0 Bft)
03.07.2014 05:00 7,1 C 24,9 C 9,0 C 7,5 C 7,5 C 0,4 C 87 % 87 % 0 % 1022,5 hPa 0,0 l/m 0,0 km/h (0 Bft) S-SW 202 0 min 0,0 UV-I 5,1 C 7,5 C 0,0 km/h (0 Bft)
03.07.2014 05:05 7,0 C 24,9 C 9,0 C 7,4 C 7,4 C 0,4 C 87 % 87 % 0 % 1022,5 hPa 0,0 l/m 0,0 km/h (0 Bft) W-SW 247 0 min 0,0 UV-I 5,0 C 7,4 C 0,0 km/h (0 Bft)
03.07.2014 05:10 7,0 C 24,9 C 9,0 C 7,4 C 7,4 C 0,4 C 87 % 87 % 0 % 1022,5 hPa 0,0 l/m 0,0 km/h (0 Bft) W-SW 247 0 min 0,0 UV-I 5,0 C 7,4 C 0,0 km/h (0 Bft)
03.07.2014 05:15 7,0 C 24,9 C 9,1 C 7,4 C 7,4 C 0,4 C 87 % 87 % 11 % 1022,5 hPa 0,0 l/m 0,0 km/h (0 Bft) S-SW 202 5 min 0,0 UV-I 5,0 C 7,4 C 0,0 km/h (0 Bft)
03.07.2014 05:20 7,0 C 24,9 C 8,8 C 7,1 C 7,1 C 0,1 C 88 % 87 % 3 % 1022,5 hPa 0,0 l/m 0,0 km/h (0 Bft) S-SW 202 0 min 0,0 UV-I 5,2 C 7,1 C 0,0 km/h (0 Bft)
03.07.2014 05:25 7,0 C 24,9 C 8,8 C 7,1 C 7,1 C 0,1 C 88 % 87 % 3 % 1022,5 hPa 0,0 l/m 0,0 km/h (0 Bft) S-SW 202 0 min 0,0 UV-I 5,2 C 7,1 C 0,0 km/h (0 Bft)
03.07.2014 05:30 6,9 C 24,9 C 8,8 C 7,1 C 7,1 C 0,2 C 87 % 87 % 5 % 1022,5 hPa 0,0 l/m 0,0 km/h (0 Bft) SW 225 0 min 0,0 UV-I 4,9 C 7,1 C 0,0 km/h (0 Bft)
03.07.2014 05:35 6,9 C 24,9 C 8,9 C 7,1 C 7,1 C 0,2 C 88 % 87 % 5 % 1022,6 hPa 0,0 l/m 0,0 km/h (0 Bft) W 270 0 min 0,0 UV-I 5,1 C 7,1 C 0,0 km/h (0 Bft)
03.07.2014 05:40 6,9 C 24,9 C 8,8 C 7,1 C 7,1 C 0,2 C 88 % 87 % 5 % 1022,6 hPa 0,0 l/m 0,0 km/h (0 Bft) NW 315 0 min 0,0 UV-I 5,1 C 7,1 C 0,0 km/h (0 Bft)
03.07.2014 05:45 6,9 C 24,9 C 8,8 C 7,1 C 7,1 C 0,2 C 88 % 87 % 5 % 1022,6 hPa 0,0 l/m 0,0 km/h (0 Bft) NW 315 0 min 0,0 UV-I 5,1 C 7,1 C 0,0 km/h (0 Bft)
03.07.2014 05:50 6,9 C 24,9 C 8,8 C 7,4 C 7,4 C 0,5 C 88 % 87 % 13 % 1022,6 hPa 0,0 l/m 0,0 km/h (0 Bft) W 270 0 min 0,0 UV-I 5,1 C 7,4 C 0,0 km/h (0 Bft)
03.07.2014 05:55 6,9 C 24,9 C 8,8 C 7,4 C 7,4 C 0,5 C 88 % 87 % 13 % 1022,6 hPa 0,0 l/m 0,0 km/h (0 Bft) W 270 0 min 0,0 UV-I 5,1 C 7,4 C 0,0 km/h (0 Bft)
03.07.2014 06:00 6,9 C 24,9 C 8,8 C 7,5 C 7,5 C 0,6 C 88 % 87 % 16 % 1022,8 hPa 0,0 l/m 0,0 km/h (0 Bft) W-SW 247 0 min 0,0 UV-I 5,1 C 7,5 C 0,0 km/h (0 Bft)
03.07.2014 06:05 6,9 C 24,9 C 8,9 C 7,6 C 7,6 C 0,7 C 88 % 87 % 18 % 1022,8 hPa 0,0 l/m 0,0 km/h (0 Bft) S-SW 202 0 min 0,0 UV-I 5,1 C 7,6 C 0,0 km/h (0 Bft)
03.07.2014 06:10 6,9 C 24,9 C 9,0 C 7,7 C 7,7 C 0,8 C 88 % 87 % 21 % 1022,8 hPa 0,0 l/m 0,0 km/h (0 Bft) W-SW 247 0 min 0,0 UV-I 5,1 C 7,7 C 0,0 km/h (0 Bft)
03.07.2014 06:15 7,1 C 24,9 C 9,1 C 7,9 C 7,9 C 0,8 C 88 % 87 % 21 % 1022,8 hPa 0,0 l/m 0,0 km/h (0 Bft) W-SW 247 0 min 0,0 UV-I 5,2 C 7,9 C 0,0 km/h (0 Bft)
03.07.2014 06:20 7,1 C 24,9 C 9,2 C 7,9 C 7,9 C 0,8 C 88 % 87 % 21 % 1022,8 hPa 0,0 l/m 0,0 km/h (0 Bft) SW 225 0 min 0,0 UV-I 5,2 C 7,9 C 0,0 km/h (0 Bft)
03.07.2014 06:25 7,1 C 24,9 C 9,3 C 8,1 C 8,1 C 1,0 C 88 % 87 % 26 % 1022,8 hPa 0,0 l/m 0,0 km/h (0 Bft) SW 225 0 min 0,0 UV-I 5,2 C 8,1 C 0,0 km/h (0 Bft)
03.07.2014 06:30 7,2 C 24,9 C 9,5 C 8,2 C 8,2 C 1,0 C 88 % 87 % 26 % 1022,8 hPa 0,0 l/m 0,2 km/h (0 Bft) SW 225 0 min 0,0 UV-I 5,3 C 8,2 C 0,0 km/h (0 Bft)
03.07.2014 06:35 7,2 C 24,9 C 9,5 C 8,4 C 8,4 C 1,2 C 88 % 87 % 32 % 1022,6 hPa 0,0 l/m 0,2 km/h (0 Bft) W-SW 247 0 min 0,0 UV-I 5,3 C 8,4 C 0,0 km/h (0 Bft)
03.07.2014 06:41 7,3 C 24,9 C 9,6 C 8,5 C 8,5 C 1,2 C 89 % 87 % 32 % 1022,6 hPa 0,0 l/m 0,0 km/h (0 Bft) N 0 0 min 0,0 UV-I 5,6 C 8,5 C 1,9 km/h (1 Bft)
03.07.2014 07:04 7,9 C 24,9 C 10,6 C 10,5 C 10,5 C 2,6 C 89 % 87 % 68 % 1022,7 hPa 0,0 l/m 0,2 km/h (0 Bft) W-SW 247 0 min 0,0 UV-I 6,2 C 10,5 C 0,0 km/h (0 Bft)
03.07.2014 07:10 8,0 C 24,9 C 10,8 C 12,6 C 12,6 C 4,6 C 89 % 87 % 100 % 1022,7 hPa 0,0 l/m 0,3 km/h (0 Bft) SW 225 6 min 0,0 UV-I 6,3 C 12,6 C 0,0 km/h (0 Bft)
03.07.2014 07:15 8,3 C 24,9 C 11,0 C 13,8 C 13,8 C 5,5 C 90 % 86 % 100 % 1022,7 hPa 0,0 l/m 0,2 km/h (0 Bft) W-SW 247 5 min 0,0 UV-I 6,8 C 13,8 C 0,0 km/h (0 Bft)
03.07.2014 07:20 8,5 C 24,9 C 11,2 C 15,4 C 15,4 C 6,9 C 90 % 86 % 100 % 1022,9 hPa 0,0 l/m 0,0 km/h (0 Bft) W-SW 247 5 min 0,0 UV-I 7,0 C 15,4 C 0,0 km/h (0 Bft)
03.07.2014 07:25 8,9 C 24,9 C 11,4 C 16,9 C 16,9 C 8,0 C 90 % 86 % 100 % 1022,9 hPa 0,0 l/m 0,0 km/h (0 Bft) O-SO 112 5 min 0,0 UV-I 7,4 C 16,9 C 0,0 km/h (0 Bft)
03.07.2014 07:30 9,3 C 24,0 C 11,6 C 18,9 C 18,9 C 9,6 C 91 % 86 % 100 % 1022,9 hPa 0,0 l/m 0,0 km/h (0 Bft) W-SW 247 5 min 0,0 UV-I 7,9 C 18,9 C 0,0 km/h (0 Bft)
03.07.2014 07:35 9,6 C 24,0 C 11,9 C 19,4 C 19,4 C 9,8 C 91 % 86 % 100 % 1022,9 hPa 0,0 l/m 0,0 km/h (0 Bft) S-SW 202 5 min 0,0 UV-I 8,2 C 19,4 C 0,0 km/h (0 Bft)
03.07.2014 07:40 10,1 C 24,0 C 12,1 C 20,7 C 20,7 C 10,6 C 91 % 86 % 100 % 1022,8 hPa 0,0 l/m 0,0 km/h (0 Bft) S 180 5 min 0,0 UV-I 8,7 C 20,7 C 0,0 km/h (0 Bft)
03.07.2014 07:45 10,6 C 24,0 C 12,3 C 21,5 C 21,5 C 10,9 C 91 % 85 % 100 % 1022,8 hPa 0,0 l/m 0,0 km/h (0 Bft) SW 225 5 min 0,0 UV-I 9,2 C 21,5 C 0,0 km/h (0 Bft)
03.07.2014 07:50 11,1 C 24,0 C 12,3 C 22,6 C 22,6 C 11,5 C 90 % 85 % 100 % 1022,8 hPa 0,0 l/m 0,0 km/h (0 Bft) W 270 5 min 0,0 UV-I 9,5 C 22,6 C 0,0 km/h (0 Bft)
03.07.2014 07:55 11,5 C 24,0 C 12,5 C 23,0 C 23,0 C 11,5 C 90 % 85 % 100 % 1022,8 hPa 0,0 l/m 0,0 km/h (0 Bft) S-SW 202 5 min 0,0 UV-I 9,9 C 23,0 C 0,0 km/h (0 Bft)
03.07.2014 08:00 11,9 C 24,0 C 12,7 C 23,7 C 23,7 C 11,8 C 89 % 85 % 100 % 1023,0 hPa 0,0 l/m 0,0 km/h (0 Bft) SW 225 5 min 0,0 UV-I 10,1 C 23,7 C 0,0 km/h (0 Bft)
03.07.2014 08:05 12,3 C 24,0 C 12,7 C 24,3 C 24,3 C 12,0 C 88 % 85 % 100 % 1023,0 hPa 0,0 l/m 0,0 km/h (0 Bft) SW 225 5 min 0,0 UV-I 10,4 C 24,3 C 0,0 km/h (0 Bft)
03.07.2014 08:10 12,7 C 24,0 C 12,9 C 25,2 C 25,2 C 12,5 C 87 % 85 % 100 % 1023,0 hPa 0,0 l/m 0,0 km/h (0 Bft) W-SW 247 5 min 0,0 UV-I 10,6 C 25,2 C 0,0 km/h (0 Bft)
03.07.2014 08:15 13,2 C 24,0 C 13,0 C 25,8 C 25,8 C 12,6 C 86 % 85 % 100 % 1023,0 hPa 0,0 l/m 0,0 km/h (0 Bft) W 270 5 min 0,0 UV-I 10,9 C 25,8 C 0,0 km/h (0 Bft)
03.07.2014 08:20 13,7 C 24,0 C 13,2 C 26,0 C 26,0 C 12,3 C 85 % 84 % 100 % 1023,0 hPa 0,0 l/m 0,2 km/h (0 Bft) W 270 5 min 0,0 UV-I 11,2 C 26,0 C 0,0 km/h (0 Bft)
03.07.2014 08:25 14,3 C 24,0 C 13,2 C 26,1 C 26,1 C 11,8 C 84 % 84 % 100 % 1023,0 hPa 0,0 l/m 0,2 km/h (0 Bft) S-SW 202 5 min 0,0 UV-I 11,6 C 26,1 C 0,0 km/h (0 Bft)
03.07.2014 08:30 14,8 C 24,0 C 13,6 C 26,5 C 26,5 C 11,7 C 83 % 84 % 100 % 1023,0 hPa 0,0 l/m 0,0 km/h (0 Bft) N 360 5 min 0,0 UV-I 11,9 C 26,5 C 0,0 km/h (0 Bft)
03.07.2014 08:35 15,3 C 24,0 C 13,9 C 26,7 C 26,7 C 11,4 C 81 % 84 % 100 % 1023,0 hPa 0,0 l/m 0,3 km/h (0 Bft) S 180 5 min 0,0 UV-I 12,1 C 26,7 C 0,0 km/h (0 Bft)
03.07.2014 08:40 15,8 C 24,0 C 14,0 C 26,9 C 26,9 C 11,1 C 80 % 83 % 100 % 1022,8 hPa 0,0 l/m 0,5 km/h (0 Bft) S-SW 202 5 min 0,0 UV-I 12,4 C 26,9 C 3,1 km/h (1 Bft)
03.07.2014 08:45 16,1 C 24,0 C 14,1 C 27,3 C 27,3 C 11,2 C 78 % 83 % 100 % 1022,8 hPa 0,0 l/m 0,3 km/h (0 Bft) W 270 5 min 0,0 UV-I 12,3 C 27,3 C 0,0 km/h (0 Bft)
03.07.2014 08:50 16,7 C 24,0 C 14,3 C 27,4 C 27,4 C 10,7 C 77 % 83 % 100 % 1022,8 hPa 0,0 l/m 0,8 km/h (0 Bft) W-SW 247 5 min 0,0 UV-I 12,6 C 27,4 C 0,0 km/h (0 Bft)
03.07.2014 08:55 16,8 C 24,0 C 14,3 C 27,5 C 27,5 C 10,7 C 75 % 83 % 100 % 1022,8 hPa 0,0 l/m 1,0 km/h (0 Bft) W-SW 247 5 min 0,0 UV-I 12,3 C 27,5 C 3,4 km/h (1 Bft)
03.07.2014 09:00 17,2 C 24,0 C 14,4 C 27,6 C 27,6 C 10,4 C 75 % 83 % 100 % 1022,8 hPa 0,0 l/m 0,8 km/h (0 Bft) W 270 5 min 0,0 UV-I 12,7 C 27,6 C 3,5 km/h (1 Bft)
03.07.2014 09:05 17,5 C 23,8 C 14,5 C 27,6 C 27,6 C 10,1 C 74 % 83 % 100 % 1022,8 hPa 0,0 l/m 0,8 km/h (0 Bft) W-SW 247 5 min 0,0 UV-I 12,8 C 27,6 C 1,9 km/h (1 Bft)
03.07.2014 09:10 17,7 C 23,8 C 14,7 C 27,8 C 27,8 C 10,1 C 73 % 82 % 100 % 1022,8 hPa 0,0 l/m 1,0 km/h (0 Bft) W-SW 247 5 min 0,0 UV-I 12,8 C 27,8 C 0,0 km/h (0 Bft)
03.07.2014 09:15 17,9 C 23,8 C 14,8 C 28,2 C 28,2 C 10,3 C 72 % 82 % 100 % 1022,8 hPa 0,0 l/m 0,6 km/h (0 Bft) NW 315 5 min 0,0 UV-I 12,8 C 28,2 C 1,8 km/h (1 Bft)
03.07.2014 09:20 18,3 C 23,8 C 14,9 C 28,7 C 28,7 C 10,4 C 71 % 82 % 100 % 1022,9 hPa 0,0 l/m 0,6 km/h (0 Bft) S-SW 202 5 min 0,0 UV-I 12,9 C 28,7 C 0,0 km/h (0 Bft)
03.07.2014 09:25 18,5 C 23,8 C 15,1 C 29,0 C 29,0 C 10,5 C 71 % 82 % 100 % 1022,9 hPa 0,0 l/m 0,5 km/h (0 Bft) S-SO 157 5 min 0,0 UV-I 13,1 C 29,0 C 0,0 km/h (0 Bft)
03.07.2014 09:30 18,7 C 23,8 C 15,2 C 29,6 C 29,6 C 10,9 C 69 % 82 % 100 % 1022,9 hPa 0,0 l/m 0,0 km/h (0 Bft) W 270 5 min 0,0 UV-I 12,9 C 29,6 C 0,0 km/h (0 Bft)
03.07.2014 09:35 18,9 C 23,8 C 15,4 C 29,5 C 29,5 C 10,6 C 68 % 81 % 100 % 1022,9 hPa 0,0 l/m 0,5 km/h (0 Bft) W-SW 247 5 min 0,0 UV-I 12,9 C 29,5 C 2,7 km/h (1 Bft)
03.07.2014 09:40 19,0 C 23,8 C 15,6 C 29,5 C 29,5 C 10,5 C 67 % 81 % 100 % 1022,7 hPa 0,0 l/m 1,0 km/h (0 Bft) O-SO 112 5 min 0,0 UV-I 12,7 C 29,5 C 4,0 km/h (1 Bft)
03.07.2014 09:45 19,1 C 23,8 C 15,7 C 29,7 C 29,7 C 10,6 C 67 % 81 % 100 % 1022,7 hPa 0,0 l/m 0,5 km/h (0 Bft) W-SW 247 5 min 0,0 UV-I 12,8 C 29,7 C 1,6 km/h (1 Bft)
03.07.2014 09:50 19,3 C 23,8 C 15,9 C 30,1 C 30,1 C 10,8 C 66 % 80 % 100 % 1022,7 hPa 0,0 l/m 0,2 km/h (0 Bft) W-NW 292 5 min 0,0 UV-I 12,8 C 30,1 C 0,0 km/h (0 Bft)
03.07.2014 09:55 19,2 C 23,8 C 16,0 C 30,2 C 30,2 C 11,0 C 64 % 79 % 100 % 1022,7 hPa 0,0 l/m 0,5 km/h (0 Bft) S-SO 157 5 min 0,0 UV-I 12,2 C 30,2 C 0,0 km/h (0 Bft)
03.07.2014 10:00 19,3 C 23,8 C 16,1 C 30,1 C 30,1 C 10,8 C 64 % 79 % 100 % 1022,7 hPa 0,0 l/m 0,6 km/h (0 Bft) W-SW 247 5 min 0,0 UV-I 12,3 C 30,1 C 0,0 km/h (0 Bft)
03.07.2014 10:05 19,3 C 23,8 C 16,3 C 30,3 C 30,3 C 11,0 C 64 % 78 % 100 % 1022,7 hPa 0,0 l/m 0,5 km/h (0 Bft) W-SW 247 5 min 0,0 UV-I 12,3 C 30,3 C 0,0 km/h (0 Bft)
03.07.2014 10:10 19,3 C 23,8 C 16,4 C 30,1 C 30,1 C 10,8 C 63 % 77 % 100 % 1022,7 hPa 0,0 l/m 0,6 km/h (0 Bft) W-NW 292 5 min 0,0 UV-I 12,1 C 30,1 C 0,0 km/h (0 Bft)
03.07.2014 10:15 19,5 C 23,8 C 16,4 C 30,3 C 30,3 C 10,8 C 63 % 77 % 100 % 1022,7 hPa 0,0 l/m 1,0 km/h (0 Bft) SW 225 5 min 0,0 UV-I 12,3 C 30,3 C 3,2 km/h (1 Bft)
03.07.2014 10:20 19,7 C 23,8 C 16,6 C 30,1 C 30,1 C 10,4 C 62 % 77 % 100 % 1022,7 hPa 0,0 l/m 0,8 km/h (0 Bft) W-SW 247 5 min 0,0 UV-I 12,2 C 30,1 C 4,3 km/h (1 Bft)
03.07.2014 10:25 19,7 C 23,8 C 16,9 C 30,2 C 30,2 C 10,5 C 61 % 76 % 100 % 1022,7 hPa 0,0 l/m 0,8 km/h (0 Bft) SO 135 5 min 0,0 UV-I 12,0 C 30,2 C 3,9 km/h (1 Bft)
03.07.2014 10:30 19,9 C 23,8 C 17,0 C 29,4 C 29,4 C 9,5 C 58 % 74 % 100 % 1022,7 hPa 0,0 l/m 1,8 km/h (1 Bft) S-SW 202 5 min 0,0 UV-I 11,4 C 29,4 C 6,6 km/h (2 Bft)
03.07.2014 10:35 20,0 C 23,8 C 17,2 C 29,5 C 29,5 C 9,5 C 58 % 73 % 100 % 1022,7 hPa 0,0 l/m 2,1 km/h (1 Bft) W-SW 247 5 min 0,0 UV-I 11,5 C 29,5 C 3,9 km/h (1 Bft)
03.07.2014 10:40 20,4 C 23,8 C 17,4 C 29,6 C 29,6 C 9,2 C 57 % 72 % 100 % 1022,6 hPa 0,0 l/m 1,4 km/h (1 Bft) W 270 5 min 0,0 UV-I 11,6 C 29,6 C 4,8 km/h (1 Bft)
03.07.2014 10:45 20,7 C 23,8 C 17,4 C 29,4 C 29,4 C 8,7 C 56 % 71 % 100 % 1022,6 hPa 0,0 l/m 1,6 km/h (1 Bft) W-SW 247 5 min 0,0 UV-I 11,6 C 29,4 C 0,0 km/h (0 Bft)
03.07.2014 10:50 20,8 C 23,8 C 17,5 C 28,8 C 28,8 C 8,0 C 55 % 70 % 100 % 1022,6 hPa 0,0 l/m 2,3 km/h (1 Bft) S 180 5 min 0,0 UV-I 11,4 C 28,8 C 1,6 km/h (1 Bft)
03.07.2014 10:55 21,1 C 23,8 C 17,7 C 29,0 C 29,0 C 7,9 C 55 % 70 % 100 % 1022,6 hPa 0,0 l/m 1,9 km/h (1 Bft) SO 135 5 min 0,0 UV-I 11,7 C 29,0 C 2,3 km/h (1 Bft)
03.07.2014 11:00 21,3 C 23,9 C 17,8 C 28,8 C 28,8 C 7,5 C 52 % 69 % 100 % 1022,7 hPa 0,0 l/m 2,1 km/h (1 Bft) SW 225 5 min 0,0 UV-I 11,0 C 28,8 C 10,0 km/h (2 Bft)
03.07.2014 11:05 21,2 C 23,9 C 17,9 C 28,3 C 28,3 C 7,1 C 51 % 68 % 100 % 1022,7 hPa 0,0 l/m 3,4 km/h (1 Bft) S 180 5 min 0,0 UV-I 10,7 C 28,3 C 7,9 km/h (2 Bft)
03.07.2014 11:10 21,2 C 23,9 C 17,9 C 27,9 C 27,9 C 6,7 C 51 % 67 % 100 % 1022,7 hPa 0,0 l/m 3,5 km/h (1 Bft) O-SO 112 5 min 0,0 UV-I 10,7 C 27,9 C 0,0 km/h (0 Bft)
03.07.2014 11:15 21,3 C 23,9 C 18,0 C 28,2 C 28,2 C 6,9 C 52 % 68 % 100 % 1022,7 hPa 0,0 l/m 2,6 km/h (1 Bft) S-SW 202 5 min 0,0 UV-I 11,0 C 28,2 C 4,8 km/h (1 Bft)
03.07.2014 11:20 21,4 C 23,9 C 18,2 C 28,6 C 28,6 C 7,2 C 53 % 68 % 100 % 1022,4 hPa 0,0 l/m 2,3 km/h (1 Bft) W 270 5 min 0,0 UV-I 11,4 C 28,6 C 8,5 km/h (2 Bft)
03.07.2014 11:25 21,5 C 23,9 C 18,4 C 28,6 C 28,6 C 7,1 C 52 % 67 % 100 % 1022,4 hPa 0,0 l/m 2,6 km/h (1 Bft) S 180 5 min 0,0 UV-I 11,2 C 28,6 C 2,1 km/h (1 Bft)
03.07.2014 11:30 21,7 C 23,8 C 18,4 C 29,0 C 29,0 C 7,3 C 52 % 67 % 100 % 1022,4 hPa 0,0 l/m 2,4 km/h (1 Bft) NW 315 5 min 0,0 UV-I 11,4 C 29,0 C 5,6 km/h (1 Bft)
03.07.2014 11:35 21,6 C 23,8 C 18,8 C 28,8 C 28,8 C 7,2 C 50 % 66 % 100 % 1022,4 hPa 0,0 l/m 2,6 km/h (1 Bft) S 180 5 min 0,0 UV-I 10,7 C 28,8 C 4,5 km/h (1 Bft)
03.07.2014 11:40 21,6 C 23,9 C 18,9 C 28,4 C 28,4 C 6,8 C 51 % 65 % 100 % 1022,5 hPa 0,0 l/m 4,0 km/h (1 Bft) S 180 5 min 0,0 UV-I 11,0 C 28,4 C 3,4 km/h (1 Bft)
03.07.2014 11:45 21,7 C 23,9 C 19,1 C 28,3 C 28,3 C 6,6 C 51 % 66 % 100 % 1022,5 hPa 0,0 l/m 3,9 km/h (1 Bft) W-SW 247 5 min 0,0 UV-I 11,1 C 28,3 C 2,3 km/h (1 Bft)
03.07.2014 11:50 21,9 C 23,9 C 19,2 C 28,7 C 28,7 C 6,8 C 50 % 64 % 100 % 1022,5 hPa 0,0 l/m 2,6 km/h (1 Bft) S 180 5 min 0,0 UV-I 11,0 C 28,7 C 6,8 km/h (2 Bft)
03.07.2014 11:55 22,0 C 23,9 C 19,5 C 29,1 C 29,1 C 7,1 C 51 % 65 % 100 % 1022,5 hPa 0,0 l/m 2,4 km/h (1 Bft) S 180 5 min 0,0 UV-I 11,4 C 29,1 C 5,5 km/h (1 Bft)
03.07.2014 12:00 22,3 C 23,9 C 19,6 C 29,1 C 29,1 C 6,8 C 49 % 64 % 100 % 1022,1 hPa 0,0 l/m 2,4 km/h (1 Bft) W-SW 247 5 min 0,0 UV-I 11,1 C 29,1 C 6,1 km/h (2 Bft)
03.07.2014 12:05 22,2 C 23,9 C 19,6 C 28,8 C 28,8 C 6,6 C 49 % 62 % 100 % 1022,1 hPa 0,0 l/m 2,6 km/h (1 Bft) W-SW 247 5 min 0,0 UV-I 11,0 C 28,8 C 2,6 km/h (1 Bft)
03.07.2014 12:10 22,4 C 24,0 C 19,8 C 28,5 C 28,5 C 6,1 C 49 % 62 % 100 % 1022,1 hPa 0,0 l/m 2,7 km/h (1 Bft) O 90 5 min 0,0 UV-I 11,2 C 28,5 C 0,0 km/h (0 Bft)
03.07.2014 12:15 22,6 C 24,0 C 19,9 C 28,6 C 28,6 C 6,0 C 50 % 62 % 100 % 1022,1 hPa 0,0 l/m 2,3 km/h (1 Bft) NW 315 5 min 0,0 UV-I 11,6 C 28,6 C 0,0 km/h (0 Bft)
03.07.2014 12:20 23,2 C 24,0 C 20,1 C 29,0 C 29,0 C 5,8 C 48 % 61 % 100 % 1022,2 hPa 0,0 l/m 2,1 km/h (1 Bft) W-SW 247 5 min 0,0 UV-I 11,6 C 29,0 C 10,5 km/h (2 Bft)
03.07.2014 12:25 23,3 C 24,0 C 20,3 C 28,8 C 28,8 C 5,5 C 47 % 61 % 100 % 1022,2 hPa 0,0 l/m 3,4 km/h (1 Bft) S 180 5 min 0,0 UV-I 11,3 C 28,8 C 4,7 km/h (1 Bft)
03.07.2014 12:30 23,6 C 24,0 C 20,4 C 28,8 C 28,8 C 5,2 C 48 % 61 % 100 % 1022,2 hPa 0,0 l/m 4,3 km/h (1 Bft) O-SO 112 5 min 0,0 UV-I 11,9 C 28,8 C 10,8 km/h (2 Bft)
03.07.2014 12:35 24,1 C 24,0 C 20,6 C 28,9 C 28,9 C 4,8 C 46 % 61 % 100 % 1022,2 hPa 0,0 l/m 3,1 km/h (1 Bft) S 180 5 min 0,1 UV-I 11,7 C 28,9 C 3,7 km/h (1 Bft)
03.07.2014 12:41 24,3 C 24,1 C 20,9 C 28,9 C 28,9 C 4,6 C 45 % 61 % 100 % 1022,2 hPa 0,0 l/m 3,7 km/h (1 Bft) N 0 6 min 0,0 UV-I 11,6 C 28,9 C 10,9 km/h (2 Bft)
03.07.2014 13:03 24,5 C 24,1 C 21,3 C 28,8 C 28,8 C 4,3 C 45 % 60 % 100 % 1021,8 hPa 0,0 l/m 4,5 km/h (1 Bft) W 270 22 min 0,1 UV-I 11,8 C 28,8 C 4,2 km/h (1 Bft)
03.07.2014 13:04 24,5 C 24,1 C 21,3 C 28,8 C 28,8 C 4,3 C 45 % 60 % 100 % 1021,8 hPa 0,0 l/m 4,5 km/h (1 Bft) W 270 1 min 0,1 UV-I 11,8 C 28,8 C 4,2 km/h (1 Bft)
03.07.2014 13:10 25,1 C 24,1 C 21,7 C 29,4 C 29,4 C 4,3 C 44 % 59 % 100 % 1021,8 hPa 0,0 l/m 3,5 km/h (1 Bft) W-SW 247 6 min 0,1 UV-I 12,0 C 29,4 C 11,9 km/h (2 Bft)
03.07.2014 13:15 25,1 C 24,1 C 21,7 C 29,2 C 29,2 C 4,1 C 43 % 59 % 100 % 1021,8 hPa 0,0 l/m 4,0 km/h (1 Bft) W-SW 247 5 min 0,1 UV-I 11,6 C 29,2 C 5,5 km/h (1 Bft)
03.07.2014 13:20 25,2 C 24,1 C 21,9 C 28,9 C 28,9 C 3,7 C 44 % 58 % 97 % 1021,9 hPa 0,0 l/m 4,8 km/h (1 Bft) N-NO 22 5 min 0,1 UV-I 12,1 C 28,9 C 0,0 km/h (0 Bft)
03.07.2014 13:25 25,5 C 24,1 C 22,0 C 29,1 C 29,1 C 3,6 C 43 % 57 % 95 % 1021,9 hPa 0,0 l/m 4,2 km/h (1 Bft) SO 135 5 min 0,1 UV-I 12,0 C 29,1 C 4,7 km/h (1 Bft)
03.07.2014 13:30 25,7 C 24,2 C 22,1 C 29,6 C 29,6 C 3,9 C 43 % 57 % 100 % 1021,9 hPa 0,0 l/m 2,4 km/h (1 Bft) S 180 5 min 0,1 UV-I 12,2 C 29,6 C 5,6 km/h (1 Bft)
03.07.2014 13:35 25,9 C 24,2 C 22,3 C 29,8 C 29,8 C 3,9 C 44 % 57 % 100 % 1021,9 hPa 0,0 l/m 2,1 km/h (1 Bft) SW 225 5 min 0,1 UV-I 12,7 C 29,8 C 7,9 km/h (2 Bft)
03.07.2014 13:40 25,9 C 24,2 C 22,4 C 29,6 C 29,6 C 3,7 C 40 % 55 % 97 % 1021,7 hPa 0,0 l/m 4,5 km/h (1 Bft) SW 225 5 min 0,1 UV-I 11,3 C 29,6 C 10,1 km/h (2 Bft)
03.07.2014 13:45 25,7 C 24,2 C 22,6 C 29,3 C 29,3 C 3,6 C 39 % 55 % 95 % 1021,7 hPa 0,0 l/m 6,3 km/h (2 Bft) S-SW 202 5 min 0,1 UV-I 10,7 C 29,3 C 16,6 km/h (3 Bft)
03.07.2014 13:50 25,7 C 24,3 C 22,9 C 29,1 C 29,1 C 3,4 C 40 % 55 % 89 % 1021,7 hPa 0,0 l/m 5,8 km/h (2 Bft) W-SW 247 5 min 0,1 UV-I 11,1 C 29,1 C 6,9 km/h (2 Bft)
03.07.2014 13:55 25,6 C 24,3 C 23,1 C 29,1 C 29,1 C 3,5 C 39 % 53 % 92 % 1021,7 hPa 0,0 l/m 5,5 km/h (1 Bft) SW 225 5 min 0,1 UV-I 10,6 C 29,1 C 2,3 km/h (1 Bft)
03.07.2014 14:00 25,9 C 24,3 C 23,3 C 29,3 C 29,3 C 3,4 C 39 % 52 % 89 % 1021,6 hPa 0,0 l/m 5,0 km/h (1 Bft) O 90 5 min 0,1 UV-I 10,9 C 29,3 C 2,3 km/h (1 Bft)
03.07.2014 14:05 26,0 C 24,3 C 23,5 C 29,7 C 29,7 C 3,7 C 40 % 51 % 97 % 1021,6 hPa 0,0 l/m 3,1 km/h (1 Bft) W-NW 292 5 min 0,1 UV-I 11,3 C 29,7 C 3,7 km/h (1 Bft)
03.07.2014 14:10 26,3 C 24,4 C 23,5 C 30,1 C 30,1 C 3,8 C 39 % 50 % 100 % 1021,6 hPa 0,0 l/m 3,1 km/h (1 Bft) O-NO 67 5 min 0,1 UV-I 11,2 C 30,1 C 18,5 km/h (3 Bft)
03.07.2014 14:15 26,4 C 24,4 C 23,4 C 30,0 C 30,0 C 3,6 C 38 % 51 % 95 % 1021,6 hPa 0,0 l/m 4,2 km/h (1 Bft) NW 315 5 min 0,1 UV-I 10,9 C 30,0 C 6,1 km/h (2 Bft)
03.07.2014 14:20 26,3 C 24,4 C 23,5 C 30,2 C 30,2 C 3,9 C 38 % 50 % 100 % 1021,5 hPa 0,0 l/m 3,9 km/h (1 Bft) SW 225 5 min 0,1 UV-I 10,8 C 30,2 C 5,8 km/h (2 Bft)
03.07.2014 14:25 26,5 C 24,4 C 23,5 C 30,2 C 30,2 C 3,7 C 38 % 50 % 97 % 1021,5 hPa 0,0 l/m 4,0 km/h (1 Bft) W-SW 247 5 min 0,1 UV-I 11,0 C 30,2 C 5,6 km/h (1 Bft)
03.07.2014 14:30 26,9 C 24,5 C 23,6 C 30,2 C 30,2 C 3,3 C 37 % 51 % 87 % 1021,5 hPa 0,0 l/m 4,5 km/h (1 Bft) W 270 5 min 0,1 UV-I 11,0 C 30,2 C 6,6 km/h (2 Bft)
03.07.2014 14:35 26,8 C 24,4 C 23,7 C 30,2 C 30,2 C 3,4 C 37 % 50 % 89 % 1021,5 hPa 0,0 l/m 4,3 km/h (1 Bft) SW 225 5 min 0,1 UV-I 10,9 C 30,2 C 4,2 km/h (1 Bft)
03.07.2014 14:40 27,1 C 24,4 C 24,0 C 30,4 C 30,4 C 3,3 C 37 % 50 % 87 % 1021,3 hPa 0,0 l/m 3,5 km/h (1 Bft) SW 225 5 min 0,1 UV-I 11,1 C 30,4 C 4,8 km/h (1 Bft)
03.07.2014 14:45 27,3 C 24,4 C 24,1 C 30,7 C 30,7 C 3,4 C 37 % 50 % 89 % 1021,3 hPa 0,0 l/m 2,9 km/h (1 Bft) W-SW 247 5 min 0,1 UV-I 11,3 C 30,7 C 2,7 km/h (1 Bft)
03.07.2014 14:50 27,7 C 24,5 C 24,0 C 30,9 C 30,9 C 3,2 C 37 % 50 % 84 % 1021,3 hPa 0,0 l/m 3,2 km/h (1 Bft) NW 315 0 min 0,1 UV-I 11,7 C 30,9 C 4,3 km/h (1 Bft)
03.07.2014 14:55 28,1 C 24,5 C 24,1 C 31,2 C 31,2 C 3,1 C 36 % 50 % 82 % 1021,3 hPa 0,0 l/m 3,2 km/h (1 Bft) W 270 0 min 0,1 UV-I 11,6 C 31,2 C 4,2 km/h (1 Bft)
03.07.2014 15:00 28,1 C 24,5 C 24,1 C 31,1 C 31,1 C 3,0 C 36 % 49 % 79 % 1021,1 hPa 0,0 l/m 3,7 km/h (1 Bft) SO 135 0 min 0,1 UV-I 11,6 C 31,1 C 3,1 km/h (1 Bft)
03.07.2014 15:05 28,1 C 24,5 C 24,1 C 31,1 C 31,1 C 3,0 C 35 % 49 % 79 % 1021,1 hPa 0,0 l/m 3,7 km/h (1 Bft) S 180 0 min 0,1 UV-I 11,2 C 31,1 C 2,9 km/h (1 Bft)
03.07.2014 15:10 28,0 C 24,6 C 24,2 C 31,7 C 31,7 C 3,7 C 35 % 46 % 97 % 1021,1 hPa 0,0 l/m 2,1 km/h (1 Bft) SO 135 5 min 0,1 UV-I 11,1 C 31,7 C 0,0 km/h (0 Bft)
03.07.2014 15:15 28,1 C 24,6 C 24,2 C 31,9 C 31,9 C 3,8 C 35 % 48 % 100 % 1021,1 hPa 0,0 l/m 2,7 km/h (1 Bft) W-SW 247 5 min 0,1 UV-I 11,2 C 31,9 C 8,9 km/h (2 Bft)
03.07.2014 15:20 28,2 C 24,6 C 24,2 C 31,7 C 31,7 C 3,5 C 35 % 48 % 92 % 1021,1 hPa 0,0 l/m 2,7 km/h (1 Bft) SW 225 5 min 0,1 UV-I 11,3 C 31,7 C 0,0 km/h (0 Bft)
03.07.2014 15:25 28,2 C 24,6 C 24,3 C 32,1 C 32,1 C 3,9 C 35 % 47 % 100 % 1021,1 hPa 0,0 l/m 2,1 km/h (1 Bft) W 270 5 min 0,1 UV-I 11,3 C 32,1 C 3,2 km/h (1 Bft)
03.07.2014 15:30 28,4 C 24,6 C 24,5 C 32,5 C 32,5 C 4,1 C 35 % 47 % 100 % 1021,1 hPa 0,0 l/m 1,6 km/h (1 Bft) W 270 5 min 0,1 UV-I 11,4 C 32,5 C 3,5 km/h (1 Bft)
03.07.2014 15:35 28,7 C 24,6 C 24,4 C 32,7 C 32,7 C 4,0 C 35 % 49 % 100 % 1021,1 hPa 0,0 l/m 2,4 km/h (1 Bft) W-SW 247 5 min 0,1 UV-I 11,7 C 32,7 C 14,5 km/h (3 Bft)
03.07.2014 15:40 28,5 C 24,7 C 24,5 C 32,3 C 32,3 C 3,8 C 35 % 48 % 100 % 1020,6 hPa 0,0 l/m 3,4 km/h (1 Bft) SW 225 5 min 0,1 UV-I 11,5 C 32,3 C 7,2 km/h (2 Bft)
03.07.2014 15:45 28,7 C 24,7 C 24,7 C 32,2 C 32,2 C 3,5 C 34 % 48 % 92 % 1020,6 hPa 0,0 l/m 3,7 km/h (1 Bft) SW 225 5 min 0,1 UV-I 11,3 C 32,2 C 5,5 km/h (1 Bft)
03.07.2014 15:50 29,1 C 24,7 C 24,7 C 32,5 C 32,5 C 3,4 C 34 % 47 % 89 % 1020,6 hPa 0,0 l/m 2,4 km/h (1 Bft) S 180 5 min 0,1 UV-I 11,6 C 32,5 C 5,3 km/h (1 Bft)
03.07.2014 15:55 29,3 C 24,7 C 24,7 C 32,7 C 32,7 C 3,4 C 33 % 47 % 89 % 1020,6 hPa 0,0 l/m 2,4 km/h (1 Bft) W-SW 247 5 min 0,0 UV-I 11,3 C 32,7 C 6,3 km/h (2 Bft)
03.07.2014 16:00 29,5 C 24,7 C 24,9 C 32,5 C 32,5 C 3,0 C 32 % 46 % 79 % 1020,7 hPa 0,0 l/m 4,2 km/h (1 Bft) S 180 0 min 0,0 UV-I 11,0 C 32,5 C 8,7 km/h (2 Bft)
03.07.2014 16:05 29,2 C 24,8 C 24,9 C 32,0 C 32,0 C 2,8 C 32 % 46 % 74 % 1020,7 hPa 0,0 l/m 4,2 km/h (1 Bft) W-NW 292 0 min 0,0 UV-I 10,8 C 32,0 C 1,9 km/h (1 Bft)
03.07.2014 16:10 29,2 C 24,8 C 25,1 C 32,5 C 32,5 C 3,3 C 32 % 45 % 87 % 1020,7 hPa 0,0 l/m 2,7 km/h (1 Bft) W 270 5 min 0,0 UV-I 10,8 C 32,5 C 2,7 km/h (1 Bft)
03.07.2014 16:15 29,5 C 24,8 C 25,3 C 33,0 C 33,0 C 3,5 C 32 % 45 % 92 % 1020,7 hPa 0,0 l/m 2,1 km/h (1 Bft) SW 225 5 min 0,0 UV-I 11,0 C 33,0 C 6,0 km/h (2 Bft)
03.07.2014 16:20 29,6 C 24,8 C 25,2 C 32,8 C 32,8 C 3,2 C 32 % 46 % 84 % 1020,4 hPa 0,0 l/m 3,4 km/h (1 Bft) NW 315 0 min 0,0 UV-I 11,1 C 32,8 C 3,5 km/h (1 Bft)
03.07.2014 16:25 29,5 C 24,9 C 25,5 C 32,7 C 32,7 C 3,2 C 30 % 45 % 84 % 1020,4 hPa 0,0 l/m 3,9 km/h (1 Bft) N-NW 337 0 min 0,0 UV-I 10,1 C 32,7 C 5,6 km/h (1 Bft)
03.07.2014 16:30 29,1 C 24,9 C 25,5 C 32,2 C 32,2 C 3,1 C 29 % 43 % 82 % 1020,4 hPa 0,0 l/m 5,1 km/h (1 Bft) SW 225 0 min 0,1 UV-I 9,2 C 32,2 C 9,0 km/h (2 Bft)
03.07.2014 16:35 28,9 C 24,9 C 25,5 C 32,1 C 32,1 C 3,2 C 30 % 43 % 84 % 1020,4 hPa 0,0 l/m 5,1 km/h (1 Bft) W 270 0 min 0,1 UV-I 9,6 C 32,1 C 5,0 km/h (1 Bft)
03.07.2014 16:40 28,7 C 24,9 C 25,5 C 31,9 C 31,9 C 3,2 C 30 % 43 % 84 % 1020,4 hPa 0,0 l/m 4,0 km/h (1 Bft) W 270 0 min 0,0 UV-I 9,4 C 31,9 C 4,2 km/h (1 Bft)
03.07.2014 16:45 28,7 C 24,9 C 25,5 C 32,0 C 32,0 C 3,3 C 31 % 44 % 87 % 1020,4 hPa 0,0 l/m 3,5 km/h (1 Bft) NW 315 5 min 0,1 UV-I 9,9 C 32,0 C 6,1 km/h (2 Bft)
03.07.2014 16:50 28,7 C 25,0 C 25,7 C 31,9 C 31,9 C 3,2 C 30 % 43 % 84 % 1020,4 hPa 0,0 l/m 4,0 km/h (1 Bft) N-NW 337 0 min 0,1 UV-I 9,4 C 31,9 C 3,1 km/h (1 Bft)
03.07.2014 16:55 28,5 C 25,0 C 25,6 C 31,9 C 31,9 C 3,4 C 31 % 43 % 89 % 1020,4 hPa 0,0 l/m 4,7 km/h (1 Bft) S 180 5 min 0,1 UV-I 9,7 C 31,9 C 7,6 km/h (2 Bft)
03.07.2014 17:00 28,2 C 25,0 C 25,7 C 32,1 C 32,1 C 3,9 C 31 % 42 % 100 % 1020,1 hPa 0,0 l/m 4,2 km/h (1 Bft) S 180 5 min 0,1 UV-I 9,4 C 32,1 C 2,7 km/h (1 Bft)
03.07.2014 17:05 28,2 C 25,1 C 25,6 C 32,4 C 32,4 C 4,2 C 31 % 42 % 100 % 1020,1 hPa 0,0 l/m 4,0 km/h (1 Bft) S-SO 157 5 min 0,1 UV-I 9,4 C 32,4 C 3,4 km/h (1 Bft)
03.07.2014 17:10 28,1 C 25,1 C 25,4 C 32,9 C 32,9 C 4,8 C 31 % 43 % 100 % 1020,1 hPa 0,0 l/m 2,4 km/h (1 Bft) W 270 5 min 0,1 UV-I 9,4 C 32,9 C 3,2 km/h (1 Bft)
03.07.2014 17:15 28,1 C 25,1 C 25,5 C 33,1 C 33,1 C 5,0 C 31 % 43 % 100 % 1020,1 hPa 0,0 l/m 2,6 km/h (1 Bft) S 180 5 min 0,0 UV-I 9,4 C 33,1 C 5,0 km/h (1 Bft)
03.07.2014 17:20 28,0 C 25,1 C 25,4 C 33,4 C 33,4 C 5,4 C 33 % 41 % 100 % 1020,1 hPa 0,0 l/m 2,3 km/h (1 Bft) W 270 5 min 0,1 UV-I 10,2 C 33,4 C 1,9 km/h (1 Bft)
03.07.2014 17:25 28,0 C 25,1 C 25,5 C 33,6 C 33,6 C 5,6 C 34 % 43 % 100 % 1020,1 hPa 0,0 l/m 2,1 km/h (1 Bft) N 360 5 min 0,1 UV-I 10,7 C 33,6 C 2,9 km/h (1 Bft)
03.07.2014 17:30 27,7 C 25,2 C 25,4 C 33,5 C 33,5 C 5,8 C 31 % 42 % 100 % 1020,1 hPa 0,0 l/m 2,6 km/h (1 Bft) NO 45 5 min 0,1 UV-I 9,0 C 33,5 C 3,2 km/h (1 Bft)
03.07.2014 17:35 27,6 C 25,3 C 25,3 C 33,4 C 33,4 C 5,8 C 31 % 42 % 100 % 1020,1 hPa 0,0 l/m 2,6 km/h (1 Bft) W 270 5 min 0,1 UV-I 8,9 C 33,4 C 0,0 km/h (0 Bft)
03.07.2014 17:40 27,5 C 25,3 C 25,5 C 33,5 C 33,5 C 6,0 C 32 % 41 % 100 % 1020,0 hPa 0,0 l/m 1,9 km/h (1 Bft) O-NO 67 5 min 0,1 UV-I 9,3 C 33,5 C 2,4 km/h (1 Bft)
03.07.2014 17:45 27,4 C 25,3 C 25,3 C 33,7 C 33,7 C 6,3 C 32 % 41 % 100 % 1020,0 hPa 0,0 l/m 1,0 km/h (0 Bft) SW 225 5 min 0,0 UV-I 9,2 C 33,7 C 0,0 km/h (0 Bft)
03.07.2014 17:50 27,3 C 25,3 C 25,0 C 34,0 C 34,0 C 6,7 C 32 % 44 % 100 % 1020,0 hPa 0,0 l/m 1,1 km/h (1 Bft) S-SW 202 5 min 0,0 UV-I 9,1 C 34,0 C 5,8 km/h (2 Bft)
03.07.2014 17:55 27,3 C 25,3 C 25,0 C 33,7 C 33,7 C 6,4 C 32 % 45 % 100 % 1020,0 hPa 0,0 l/m 2,3 km/h (1 Bft) W-SW 247 5 min 0,1 UV-I 9,1 C 33,7 C 4,8 km/h (1 Bft)
03.07.2014 18:00 27,3 C 25,4 C 25,1 C 33,2 C 33,2 C 5,9 C 33 % 43 % 100 % 1019,7 hPa 0,0 l/m 2,9 km/h (1 Bft) S 180 5 min 0,0 UV-I 9,6 C 33,2 C 1,6 km/h (1 Bft)
03.07.2014 18:05 27,3 C 25,4 C 25,2 C 33,3 C 33,3 C 6,0 C 34 % 42 % 100 % 1019,7 hPa 0,0 l/m 2,3 km/h (1 Bft) NW 315 5 min 0,0 UV-I 10,0 C 33,3 C 2,1 km/h (1 Bft)
03.07.2014 18:10 27,3 C 25,4 C 25,3 C 33,4 C 33,4 C 6,1 C 34 % 42 % 100 % 1019,7 hPa 0,0 l/m 1,8 km/h (1 Bft) S-SW 202 5 min 0,0 UV-I 10,0 C 33,4 C 2,4 km/h (1 Bft)
03.07.2014 18:15 27,3 C 25,4 C 25,2 C 33,5 C 33,5 C 6,2 C 34 % 43 % 100 % 1019,7 hPa 0,0 l/m 1,6 km/h (1 Bft) W-SW 247 5 min 0,0 UV-I 10,0 C 33,5 C 3,4 km/h (1 Bft)
03.07.2014 18:20 27,3 C 25,5 C 25,1 C 33,6 C 33,6 C 6,3 C 34 % 45 % 100 % 1019,6 hPa 0,0 l/m 1,8 km/h (1 Bft) S 180 5 min 0,1 UV-I 10,0 C 33,6 C 2,9 km/h (1 Bft)
03.07.2014 18:25 27,5 C 25,5 C 25,1 C 33,5 C 33,5 C 6,0 C 34 % 45 % 100 % 1019,6 hPa 0,0 l/m 1,6 km/h (1 Bft) W-SW 247 5 min 0,0 UV-I 10,2 C 33,5 C 0,0 km/h (0 Bft)
03.07.2014 18:30 27,4 C 25,5 C 25,0 C 33,6 C 33,6 C 6,2 C 32 % 42 % 100 % 1019,6 hPa 0,0 l/m 1,3 km/h (1 Bft) W-SW 247 5 min 0,1 UV-I 9,2 C 33,6 C 1,6 km/h (1 Bft)
03.07.2014 18:35 27,3 C 25,5 C 25,1 C 33,5 C 33,5 C 6,2 C 34 % 43 % 100 % 1019,6 hPa 0,0 l/m 1,3 km/h (1 Bft) S 180 5 min 0,0 UV-I 10,0 C 33,5 C 0,0 km/h (0 Bft)
03.07.2014 18:41 27,2 C 25,5 C 24,9 C 33,3 C 33,3 C 6,1 C 34 % 44 % 100 % 1019,3 hPa 0,0 l/m 1,9 km/h (1 Bft) N 0 6 min 0,0 UV-I 10,0 C 33,3 C 0,0 km/h (0 Bft)
03.07.2014 19:01 27,2 C 25,6 C 24,6 C 33,7 C 33,7 C 6,5 C 34 % 45 % 100 % 1019,1 hPa 0,0 l/m 0,3 km/h (0 Bft) W-SW 247 20 min 0,0 UV-I 10,0 C 33,7 C 2,3 km/h (1 Bft)
03.07.2014 19:10 27,5 C 25,6 C 24,7 C 33,3 C 33,3 C 5,8 C 34 % 45 % 100 % 1019,1 hPa 0,0 l/m 1,0 km/h (0 Bft) SW 225 9 min 0,0 UV-I 10,2 C 33,3 C 0,0 km/h (0 Bft)
03.07.2014 19:15 27,5 C 25,6 C 24,6 C 33,2 C 33,2 C 5,7 C 34 % 44 % 100 % 1019,1 hPa 0,0 l/m 0,6 km/h (0 Bft) S 180 5 min 0,0 UV-I 10,2 C 33,2 C 0,0 km/h (0 Bft)
03.07.2014 19:20 27,3 C 25,6 C 24,5 C 33,1 C 33,1 C 5,8 C 35 % 47 % 100 % 1019,1 hPa 0,0 l/m 0,0 km/h (0 Bft) O-NO 67 5 min 0,0 UV-I 10,5 C 33,1 C 0,0 km/h (0 Bft)
03.07.2014 19:25 27,1 C 25,6 C 24,5 C 32,9 C 32,9 C 5,8 C 35 % 46 % 100 % 1019,1 hPa 0,0 l/m 0,2 km/h (0 Bft) O-NO 67 5 min 0,0 UV-I 10,3 C 32,9 C 1,9 km/h (1 Bft)
03.07.2014 19:30 26,9 C 25,6 C 24,3 C 32,7 C 32,7 C 5,8 C 36 % 48 % 100 % 1019,1 hPa 0,0 l/m 0,2 km/h (0 Bft) O-NO 67 5 min 0,0 UV-I 10,6 C 32,7 C 0,0 km/h (0 Bft)
03.07.2014 19:35 26,7 C 25,6 C 24,1 C 32,4 C 32,4 C 5,7 C 37 % 48 % 100 % 1019,1 hPa 0,0 l/m 0,2 km/h (0 Bft) O-NO 67 5 min 0,0 UV-I 10,8 C 32,4 C 0,0 km/h (0 Bft)
03.07.2014 19:40 26,6 C 25,7 C 24,2 C 32,2 C 32,2 C 5,6 C 37 % 46 % 100 % 1019,6 hPa 0,0 l/m 0,3 km/h (0 Bft) O-SO 112 5 min 0,0 UV-I 10,7 C 32,2 C 0,0 km/h (0 Bft)
03.07.2014 19:45 26,5 C 25,7 C 24,0 C 31,8 C 31,8 C 5,3 C 36 % 48 % 100 % 1019,6 hPa 0,0 l/m 0,2 km/h (0 Bft) O-SO 112 5 min 0,0 UV-I 10,2 C 31,8 C 0,0 km/h (0 Bft)
03.07.2014 19:50 26,3 C 25,7 C 23,8 C 31,2 C 31,2 C 4,9 C 38 % 50 % 100 % 1019,6 hPa 0,0 l/m 0,2 km/h (0 Bft) N-NO 22 5 min 0,0 UV-I 10,8 C 31,2 C 0,0 km/h (0 Bft)
03.07.2014 19:55 26,3 C 25,7 C 23,7 C 31,2 C 31,2 C 4,9 C 38 % 50 % 100 % 1019,6 hPa 0,0 l/m 0,0 km/h (0 Bft) SO 135 5 min 0,0 UV-I 10,8 C 31,2 C 0,0 km/h (0 Bft)
03.07.2014 20:00 26,0 C 25,7 C 23,3 C 30,9 C 30,9 C 4,9 C 39 % 52 % 100 % 1018,9 hPa 0,0 l/m 0,0 km/h (0 Bft) O 90 5 min 0,0 UV-I 11,0 C 30,9 C 0,0 km/h (0 Bft)
03.07.2014 20:05 25,9 C 25,7 C 23,1 C 30,1 C 30,1 C 4,2 C 40 % 54 % 100 % 1018,9 hPa 0,0 l/m 0,0 km/h (0 Bft) O-NO 67 5 min 0,0 UV-I 11,3 C 30,1 C 0,0 km/h (0 Bft)
03.07.2014 20:10 25,5 C 25,7 C 22,8 C 29,1 C 29,1 C 3,6 C 41 % 55 % 95 % 1018,9 hPa 0,0 l/m 0,0 km/h (0 Bft) O-NO 67 5 min 0,0 UV-I 11,3 C 29,1 C 0,0 km/h (0 Bft)
03.07.2014 20:15 25,3 C 25,7 C 22,7 C 27,9 C 27,9 C 2,6 C 42 % 57 % 68 % 1018,9 hPa 0,0 l/m 0,0 km/h (0 Bft) O-NO 67 5 min 0,0 UV-I 11,5 C 27,9 C 0,0 km/h (0 Bft)
03.07.2014 20:20 25,0 C 25,7 C 22,5 C 26,4 C 26,4 C 1,4 C 43 % 58 % 37 % 1018,8 hPa 0,0 l/m 0,0 km/h (0 Bft) O-NO 67 5 min 0,0 UV-I 11,5 C 26,4 C 0,0 km/h (0 Bft)
03.07.2014 20:25 24,8 C 25,8 C 22,3 C 25,7 C 25,7 C 0,9 C 44 % 59 % 24 % 1018,8 hPa 0,0 l/m 0,0 km/h (0 Bft) O-NO 67 0 min 0,0 UV-I 11,7 C 25,7 C 0,0 km/h (0 Bft)
03.07.2014 20:30 24,4 C 25,8 C 22,3 C 24,7 C 24,7 C 0,3 C 44 % 60 % 8 % 1018,8 hPa 0,0 l/m 0,0 km/h (0 Bft) O-NO 67 0 min 0,0 UV-I 11,3 C 24,7 C 0,0 km/h (0 Bft)
03.07.2014 20:35 24,3 C 25,8 C 22,1 C 24,3 C 24,3 C 0,0 C 44 % 59 % 0 % 1018,8 hPa 0,0 l/m 0,0 km/h (0 Bft) O-NO 67 0 min 0,0 UV-I 11,3 C 24,3 C 0,0 km/h (0 Bft)
03.07.2014 20:40 24,1 C 25,8 C 21,9 C 24,0 C 23,7 C 0,0 C 46 % 60 % 0 % 1018,8 hPa 0,0 l/m 0,0 km/h (0 Bft) NO 45 0 min 0,0 UV-I 11,7 C 23,7 C 0,0 km/h (0 Bft)
03.07.2014 20:45 24,0 C 25,8 C 21,7 C 23,8 C 23,4 C 0,0 C 47 % 60 % 0 % 1018,8 hPa 0,0 l/m 0,0 km/h (0 Bft) NO 45 0 min 0,0 UV-I 12,0 C 23,4 C 0,0 km/h (0 Bft)
03.07.2014 20:50 23,7 C 25,8 C 21,5 C 23,4 C 22,8 C 0,0 C 48 % 61 % 0 % 1018,8 hPa 0,0 l/m 0,0 km/h (0 Bft) NO 45 0 min 0,0 UV-I 12,0 C 22,8 C 0,0 km/h (0 Bft)
03.07.2014 20:55 23,5 C 25,8 C 21,3 C 23,2 C 22,5 C 0,0 C 48 % 63 % 0 % 1018,8 hPa 0,0 l/m 0,0 km/h (0 Bft) NO 45 0 min 0,0 UV-I 11,8 C 22,5 C 0,0 km/h (0 Bft)
03.07.2014 21:00 23,1 C 25,8 C 20,9 C 22,7 C 21,9 C 0,0 C 51 % 63 % 0 % 1018,8 hPa 0,0 l/m 0,0 km/h (0 Bft) NO 45 0 min 0,0 UV-I 12,4 C 21,9 C 0,0 km/h (0 Bft)
03.07.2014 21:05 22,9 C 25,8 C 20,8 C 22,4 C 21,5 C 0,0 C 52 % 64 % 0 % 1018,8 hPa 0,0 l/m 0,0 km/h (0 Bft) NW 315 0 min 0,0 UV-I 12,5 C 21,5 C 0,0 km/h (0 Bft)
03.07.2014 21:10 22,7 C 25,8 C 20,6 C 22,1 C 20,9 C 0,0 C 54 % 65 % 0 % 1018,8 hPa 0,0 l/m 0,0 km/h (0 Bft) W-SW 247 0 min 0,0 UV-I 12,9 C 20,9 C 0,0 km/h (0 Bft)
03.07.2014 21:15 22,4 C 25,8 C 20,4 C 21,8 C 20,5 C 0,0 C 55 % 66 % 0 % 1018,8 hPa 0,0 l/m 0,0 km/h (0 Bft) W-SW 247 0 min 0,0 UV-I 12,9 C 20,5 C 0,0 km/h (0 Bft)
03.07.2014 21:20 21,9 C 25,8 C 20,0 C 21,3 C 20,0 C 0,0 C 56 % 67 % 0 % 1018,8 hPa 0,0 l/m 0,0 km/h (0 Bft) O-NO 67 0 min 0,0 UV-I 12,7 C 20,0 C 0,0 km/h (0 Bft)
03.07.2014 21:25 21,6 C 25,8 C 19,9 C 21,0 C 19,9 C 0,0 C 56 % 68 % 0 % 1018,8 hPa 0,0 l/m 0,0 km/h (0 Bft) O-NO 67 0 min 0,0 UV-I 12,4 C 19,9 C 0,0 km/h (0 Bft)
03.07.2014 21:30 21,3 C 25,8 C 19,5 C 20,7 C 19,5 C 0,0 C 57 % 69 % 0 % 1018,8 hPa 0,0 l/m 0,0 km/h (0 Bft) O-NO 67 0 min 0,0 UV-I 12,4 C 19,5 C 0,0 km/h (0 Bft)
03.07.2014 21:35 21,1 C 25,8 C 19,5 C 20,4 C 19,1 C 0,0 C 59 % 69 % 0 % 1018,8 hPa 0,0 l/m 0,0 km/h (0 Bft) O-NO 67 0 min 0,0 UV-I 12,8 C 19,1 C 0,0 km/h (0 Bft)
03.07.2014 21:40 20,8 C 25,8 C 19,3 C 20,1 C 18,6 C 0,0 C 61 % 70 % 0 % 1018,6 hPa 0,0 l/m 0,0 km/h (0 Bft) NO 45 0 min 0,0 UV-I 13,0 C 18,6 C 0,0 km/h (0 Bft)
03.07.2014 21:45 20,6 C 25,8 C 19,0 C 19,8 C 18,3 C 0,0 C 62 % 71 % 0 % 1018,6 hPa 0,0 l/m 0,0 km/h (0 Bft) O-NO 67 0 min 0,0 UV-I 13,1 C 18,3 C 0,0 km/h (0 Bft)
03.07.2014 21:50 20,1 C 25,8 C 18,7 C 19,4 C 18,0 C 0,0 C 63 % 71 % 0 % 1018,6 hPa 0,0 l/m 0,0 km/h (0 Bft) O-NO 67 0 min 0,0 UV-I 12,8 C 18,0 C 0,0 km/h (0 Bft)
03.07.2014 21:55 19,9 C 25,8 C 18,7 C 19,2 C 17,7 C 0,0 C 64 % 72 % 0 % 1018,6 hPa 0,0 l/m 0,0 km/h (0 Bft) O-NO 67 0 min 0,0 UV-I 12,9 C 17,7 C 0,0 km/h (0 Bft)
03.07.2014 22:00 19,6 C 25,8 C 18,4 C 18,8 C 17,3 C 0,0 C 66 % 74 % 0 % 1018,8 hPa 0,0 l/m 0,0 km/h (0 Bft) N-NW 337 0 min 0,0 UV-I 13,1 C 17,3 C 0,0 km/h (0 Bft)
03.07.2014 22:05 19,5 C 25,8 C 18,3 C 18,7 C 17,0 C 0,0 C 67 % 74 % 0 % 1018,8 hPa 0,0 l/m 0,0 km/h (0 Bft) N-NW 337 0 min 0,0 UV-I 13,2 C 17,0 C 0,0 km/h (0 Bft)
03.07.2014 22:10 19,2 C 25,8 C 18,0 C 18,4 C 16,7 C 0,0 C 68 % 75 % 0 % 1018,8 hPa 0,0 l/m 0,0 km/h (0 Bft) N-NW 337 0 min 0,0 UV-I 13,1 C 16,7 C 0,0 km/h (0 Bft)
03.07.2014 22:15 19,0 C 25,8 C 18,0 C 18,2 C 16,6 C 0,0 C 69 % 76 % 0 % 1018,8 hPa 0,0 l/m 0,0 km/h (0 Bft) W 270 0 min 0,0 UV-I 13,2 C 16,6 C 0,0 km/h (0 Bft)
03.07.2014 22:20 18,6 C 25,8 C 17,8 C 17,8 C 16,3 C 0,0 C 70 % 76 % 0 % 1018,9 hPa 0,0 l/m 0,0 km/h (0 Bft) W 270 0 min 0,0 UV-I 13,0 C 16,3 C 0,0 km/h (0 Bft)
03.07.2014 22:25 18,5 C 25,8 C 17,5 C 17,7 C 16,1 C 0,0 C 70 % 76 % 0 % 1018,9 hPa 0,0 l/m 0,0 km/h (0 Bft) W 270 0 min 0,0 UV-I 12,9 C 16,1 C 0,0 km/h (0 Bft)
03.07.2014 22:30 18,2 C 25,8 C 17,3 C 17,4 C 15,9 C 0,0 C 71 % 77 % 0 % 1018,9 hPa 0,0 l/m 0,0 km/h (0 Bft) NW 315 0 min 0,0 UV-I 12,9 C 15,9 C 0,0 km/h (0 Bft)
03.07.2014 22:35 18,1 C 25,8 C 17,2 C 17,4 C 15,9 C 0,0 C 72 % 77 % 0 % 1018,9 hPa 0,0 l/m 0,0 km/h (0 Bft) N-NO 22 0 min 0,0 UV-I 13,0 C 15,9 C 0,0 km/h (0 Bft)
03.07.2014 22:40 17,7 C 25,8 C 17,0 C 17,1 C 15,8 C 0,0 C 72 % 78 % 0 % 1018,6 hPa 0,0 l/m 0,0 km/h (0 Bft) O-NO 67 0 min 0,0 UV-I 12,6 C 15,8 C 0,0 km/h (0 Bft)
03.07.2014 22:45 17,5 C 25,8 C 16,8 C 16,9 C 15,7 C 0,0 C 72 % 78 % 0 % 1018,6 hPa 0,0 l/m 0,0 km/h (0 Bft) O-NO 67 0 min 0,0 UV-I 12,4 C 15,7 C 0,0 km/h (0 Bft)
03.07.2014 22:50 17,3 C 25,8 C 16,8 C 16,7 C 15,5 C 0,0 C 73 % 78 % 0 % 1018,6 hPa 0,0 l/m 0,0 km/h (0 Bft) O-NO 67 0 min 0,0 UV-I 12,4 C 15,5 C 0,0 km/h (0 Bft)
03.07.2014 22:55 17,2 C 25,8 C 16,7 C 16,6 C 15,4 C 0,0 C 73 % 78 % 0 % 1018,6 hPa 0,0 l/m 0,0 km/h (0 Bft) N-NO 22 0 min 0,0 UV-I 12,3 C 15,4 C 0,0 km/h (0 Bft)
03.07.2014 23:00 16,9 C 25,8 C 16,5 C 16,3 C 15,2 C 0,0 C 73 % 78 % 0 % 1018,9 hPa 0,0 l/m 0,0 km/h (0 Bft) N-NW 337 0 min 0,0 UV-I 12,0 C 15,2 C 0,0 km/h (0 Bft)
03.07.2014 23:05 16,9 C 25,8 C 16,4 C 16,3 C 15,1 C 0,0 C 74 % 78 % 0 % 1018,9 hPa 0,0 l/m 0,0 km/h (0 Bft) N-NW 337 0 min 0,0 UV-I 12,2 C 15,1 C 0,0 km/h (0 Bft)
03.07.2014 23:10 16,7 C 25,8 C 16,2 C 16,1 C 15,0 C 0,0 C 75 % 79 % 0 % 1018,9 hPa 0,0 l/m 0,0 km/h (0 Bft) N-NO 22 0 min 0,0 UV-I 12,2 C 15,0 C 0,0 km/h (0 Bft)
03.07.2014 23:15 16,5 C 25,8 C 16,3 C 15,9 C 14,8 C 0,0 C 75 % 79 % 0 % 1018,9 hPa 0,0 l/m 0,0 km/h (0 Bft) NW 315 0 min 0,0 UV-I 12,1 C 14,8 C 0,0 km/h (0 Bft)
03.07.2014 23:20 16,3 C 25,8 C 16,1 C 15,7 C 14,6 C 0,0 C 76 % 79 % 0 % 1018,9 hPa 0,0 l/m 0,0 km/h (0 Bft) NW 315 0 min 0,0 UV-I 12,1 C 14,6 C 0,0 km/h (0 Bft)
03.07.2014 23:25 16,3 C 25,8 C 16,0 C 15,7 C 14,5 C 0,0 C 76 % 79 % 0 % 1018,9 hPa 0,0 l/m 0,0 km/h (0 Bft) O-NO 67 0 min 0,0 UV-I 12,1 C 14,5 C 0,0 km/h (0 Bft)
03.07.2014 23:30 16,0 C 25,8 C 15,9 C 15,5 C 14,5 C 0,0 C 77 % 80 % 0 % 1018,9 hPa 0,0 l/m 0,0 km/h (0 Bft) N-NO 22 0 min 0,0 UV-I 12,0 C 14,5 C 0,0 km/h (0 Bft)
03.07.2014 23:35 15,9 C 25,8 C 15,7 C 15,4 C 14,3 C 0,0 C 77 % 80 % 0 % 1018,9 hPa 0,0 l/m 0,0 km/h (0 Bft) SW 225 0 min 0,0 UV-I 11,9 C 14,3 C 0,0 km/h (0 Bft)
03.07.2014 23:40 15,9 C 25,8 C 15,6 C 15,3 C 14,1 C 0,0 C 78 % 81 % 0 % 1018,8 hPa 0,0 l/m 0,0 km/h (0 Bft) SW 225 0 min 0,0 UV-I 12,1 C 14,1 C 0,0 km/h (0 Bft)
03.07.2014 23:45 15,7 C 25,8 C 15,6 C 15,1 C 14,0 C 0,0 C 78 % 81 % 0 % 1018,8 hPa 0,0 l/m 0,0 km/h (0 Bft) SW 225 0 min 0,0 UV-I 11,9 C 14,0 C 0,0 km/h (0 Bft)
03.07.2014 23:50 15,5 C 25,8 C 15,5 C 14,9 C 13,8 C 0,0 C 78 % 81 % 0 % 1018,8 hPa 0,0 l/m 0,0 km/h (0 Bft) SW 225 0 min 0,0 UV-I 11,7 C 13,8 C 0,0 km/h (0 Bft)
03.07.2014 23:55 15,5 C 25,8 C 15,5 C 14,9 C 13,7 C 0,0 C 79 % 81 % 0 % 1018,8 hPa 0,0 l/m 0,0 km/h (0 Bft) SW 225 0 min 0,0 UV-I 11,9 C 13,7 C 0,0 km/h (0 Bft)
_ Min-Zeit 05:30 00:46 05:20 04:20 04:30 00:00 16:30 17:20 00:00 21:40 - 00:00 - - - 00:00 05:30 04:30 00:00
Minimum _ 6,9 C 0,0 C 8,8 C 7,1 C 6,9 C 0,0 C 29 % 41 % 0 % 1018,6 hPa - 0,0 km/h (0 Bft) - - - 0,0 UV-I 4,9 C 6,9 C 0,0 km/h (0 Bft)
_ Max-Zeit 16:20 20:25 16:50 17:50 17:50 08:15 07:30 04:40 07:10 08:00 00:00 13:45 - - 13:03 12:35 22:05 17:50 14:10
Maximum _ 29,6 C 25,8 C 25,7 C 34,0 C 34,0 C 12,6 C 91 % 87 % 100 % 1023,0 hPa 0,0 l/m 6,3 km/h
S-SW (2 Bft)
- - 22 min 0,1 UV-I 13,2 C 34,0 C 18,5 km/h
O-NO (3 Bft)
Durchschnitt _ 18,3 C 24,4 C 17,1 C 21,8 C 21,5 C 3,6 C 62 % 69 % 56 % 1021,3 hPa #0,0 l/m 1,1 km/h (1 Bft) S - #12:21 h 0,1 UV-I 9,7 C 21,5 C 1,8 km/h (1 Bft)
2014 www.wetterstation-wechselburg.de